createdAt,value
2023-03-21T00:01:03.904Z,8.88
2023-03-21T00:05:16.248Z,9.88
2023-03-21T00:09:28.118Z,9.85
2023-03-21T00:13:42.381Z,10.38
2023-03-21T00:17:58.393Z,11.05
2023-03-21T00:22:09.973Z,11.60
2023-03-21T00:26:22.603Z,11.65
2023-03-21T00:30:34.182Z,11.10
2023-03-21T00:35:00.224Z,10.98
2023-03-21T00:39:18.537Z,12.05
2023-03-21T00:43:31.530Z,11.00
2023-03-21T00:47:43.426Z,10.73
2023-03-21T00:51:57.357Z,10.48
2023-03-21T00:56:11.239Z,10.77
2023-03-21T01:00:23.013Z,12.10
2023-03-21T01:04:34.658Z,9.90
2023-03-21T01:08:52.697Z,11.02
2023-03-21T01:13:04.947Z,9.77
2023-03-21T01:17:16.596Z,10.00
2023-03-21T01:21:28.345Z,10.05
2023-03-21T01:25:40.676Z,10.27
2023-03-21T01:29:52.459Z,10.23
2023-03-21T01:34:04.454Z,10.02
2023-03-21T01:38:16.220Z,10.60
2023-03-21T01:42:29.109Z,11.05
2023-03-21T01:46:57.381Z,9.93
2023-03-21T01:51:43.885Z,9.75
2023-03-21T01:56:20.879Z,9.30
2023-03-21T02:00:39.093Z,9.23
2023-03-21T02:05:05.635Z,9.50
2023-03-21T02:09:22.556Z,9.35
2023-03-21T02:13:35.361Z,10.30
2023-03-21T02:17:56.790Z,9.50
2023-03-21T02:22:49.356Z,8.57
2023-03-21T02:27:18.904Z,9.63
2023-03-21T02:31:41.359Z,10.82
2023-03-21T02:36:19.056Z,9.45
2023-03-21T02:40:39.617Z,9.82
2023-03-21T02:45:11.644Z,10.10
2023-03-21T02:49:35.597Z,9.80
2023-03-21T02:54:10.220Z,10.23
2023-03-21T02:58:30.295Z,9.90
2023-03-21T03:02:43.729Z,9.27
2023-03-21T03:07:11.346Z,10.05
2023-03-21T03:11:28.959Z,9.85
2023-03-21T03:16:00.299Z,9.63
2023-03-21T03:20:36.740Z,10.32
2023-03-21T03:25:04.859Z,9.93
2023-03-21T03:29:29.018Z,10.07
2023-03-21T03:33:46.864Z,9.60
2023-03-21T03:38:02.721Z,10.18
2023-03-21T03:42:28.385Z,10.52
2023-03-21T03:47:17.555Z,9.77
2023-03-21T03:51:42.687Z,9.52
2023-03-21T03:56:08.167Z,8.82
2023-03-21T04:00:20.939Z,8.55
2023-03-21T04:04:36.907Z,7.53
2023-03-21T04:08:48.976Z,7.75
2023-03-21T04:13:00.719Z,8.25
2023-03-21T04:17:19.246Z,7.18
2023-03-21T04:21:32.718Z,7.13
2023-03-21T04:25:55.915Z,6.47
2023-03-21T04:30:12.219Z,6.55
2023-03-21T04:34:40.259Z,6.70
2023-03-21T04:38:52.647Z,7.30
2023-03-21T04:43:04.415Z,7.28
2023-03-21T04:47:17.018Z,6.25
2023-03-21T04:51:28.773Z,6.38
2023-03-21T04:55:40.544Z,6.50
2023-03-21T04:59:52.150Z,5.90
2023-03-21T05:04:04.952Z,6.15
2023-03-21T05:08:18.920Z,6.53
2023-03-21T05:12:30.574Z,6.25
2023-03-21T05:16:45.166Z,5.35
2023-03-21T05:20:57.424Z,5.65
2023-03-21T05:25:10.321Z,5.57
2023-03-21T05:29:42.211Z,6.13
2023-03-21T05:33:55.481Z,6.03
2023-03-21T05:38:07.270Z,5.63
2023-03-21T05:42:31.531Z,5.68
2023-03-21T05:46:43.617Z,5.90
2023-03-21T05:50:56.570Z,6.43
2023-03-21T05:55:09.117Z,7.10
2023-03-21T05:59:22.241Z,6.57
2023-03-21T06:03:37.311Z,5.82
2023-03-21T06:07:52.771Z,6.22
2023-03-21T06:12:04.695Z,5.93
2023-03-21T06:16:35.153Z,5.70
2023-03-21T06:20:47.336Z,6.70
2023-03-21T06:24:59.401Z,5.68
2023-03-21T06:29:12.630Z,5.75
2023-03-21T06:33:28.088Z,6.13
2023-03-21T06:37:39.841Z,5.88
2023-03-21T06:41:51.804Z,5.60
2023-03-21T06:46:04.323Z,5.88
2023-03-21T06:50:16.524Z,5.40
2023-03-21T06:54:29.575Z,5.57
2023-03-21T06:58:45.348Z,4.78
2023-03-21T07:03:07.727Z,5.28
2023-03-21T07:07:19.728Z,5.60
2023-03-21T07:11:32.517Z,5.72
2023-03-21T07:15:44.583Z,4.75
2023-03-21T07:19:57.361Z,5.65
2023-03-21T07:24:09.047Z,4.80
2023-03-21T07:28:20.882Z,5.20
2023-03-21T07:32:34.530Z,5.57
2023-03-21T07:36:47.227Z,5.25
2023-03-21T07:40:59.823Z,4.90
2023-03-21T07:45:21.975Z,5.13
2023-03-21T07:49:33.746Z,4.57
2023-03-21T07:53:48.576Z,5.40
2023-03-21T07:58:01.394Z,4.70
2023-03-21T08:02:17.457Z,4.60
2023-03-21T08:06:29.311Z,5.15
2023-03-21T08:10:43.300Z,4.68
2023-03-21T08:14:55.000Z,4.68
2023-03-21T08:19:06.708Z,4.43
2023-03-21T08:23:18.688Z,4.32
2023-03-21T08:27:30.842Z,4.85
2023-03-21T08:31:42.494Z,4.82
2023-03-21T08:35:54.865Z,4.22
2023-03-21T08:40:11.296Z,4.50
2023-03-21T08:44:25.288Z,4.40
2023-03-21T08:48:38.814Z,4.38
2023-03-21T08:52:51.130Z,4.70
2023-03-21T08:57:02.756Z,4.70
2023-03-21T09:01:15.565Z,4.00
2023-03-21T09:05:28.444Z,4.93
2023-03-21T09:09:41.400Z,4.60
2023-03-21T09:13:53.094Z,4.97
2023-03-21T09:18:15.002Z,4.28
2023-03-21T09:22:27.759Z,4.38
2023-03-21T09:26:39.714Z,4.60
2023-03-21T09:30:51.721Z,4.55
2023-03-21T09:35:05.580Z,4.43
2023-03-21T09:39:17.324Z,4.50
2023-03-21T09:43:49.522Z,4.70
2023-03-21T09:48:02.779Z,4.57
2023-03-21T09:52:58.245Z,5.10
2023-03-21T09:57:38.137Z,4.18
2023-03-21T10:01:50.396Z,3.70
2023-03-21T10:06:10.042Z,4.68
2023-03-21T10:10:27.796Z,4.25
2023-03-21T10:14:43.340Z,5.15
2023-03-21T10:18:55.726Z,4.10
2023-03-21T10:23:13.122Z,4.30
2023-03-21T10:27:24.759Z,3.45
2023-03-21T10:31:36.647Z,3.85
2023-03-21T10:35:55.615Z,3.78
2023-03-21T10:40:12.135Z,4.03
2023-03-21T10:44:31.179Z,3.78
2023-03-21T10:48:47.504Z,4.07
2023-03-21T10:53:00.768Z,3.95
2023-03-21T10:57:21.677Z,3.60
2023-03-21T11:01:43.312Z,3.80
2023-03-21T11:06:28.244Z,3.92
2023-03-21T11:11:24.560Z,3.95
2023-03-21T11:16:08.581Z,3.67
2023-03-21T11:20:21.100Z,3.65
2023-03-21T11:24:35.536Z,3.40
2023-03-21T11:28:47.471Z,3.25
2023-03-21T11:33:06.285Z,3.97
2023-03-21T11:37:26.387Z,4.00
2023-03-21T11:41:40.876Z,3.42
2023-03-21T11:46:08.752Z,3.53
2023-03-21T11:50:27.335Z,3.83
2023-03-21T11:55:05.760Z,3.95
2023-03-21T11:59:46.439Z,3.92
2023-03-21T12:04:20.987Z,3.25
2023-03-21T12:08:49.290Z,3.40
2023-03-21T12:13:09.857Z,3.40
2023-03-21T12:17:36.298Z,3.42
2023-03-21T12:21:47.868Z,3.15
2023-03-21T12:26:29.884Z,3.22
2023-03-21T12:30:56.724Z,3.42
2023-03-21T12:35:24.416Z,3.35
2023-03-21T12:39:40.005Z,2.88
2023-03-21T12:44:05.761Z,3.28
2023-03-21T12:48:33.766Z,3.67
2023-03-21T12:52:49.935Z,3.25
2023-03-21T12:57:04.935Z,3.35
2023-03-21T13:01:21.544Z,3.03
2023-03-21T13:06:04.079Z,3.33
2023-03-21T13:10:21.042Z,3.33
2023-03-21T13:14:39.660Z,2.97
2023-03-21T13:19:07.629Z,3.53
2023-03-21T13:23:24.936Z,3.05
2023-03-21T13:27:39.465Z,3.22
2023-03-21T13:31:55.898Z,3.33
2023-03-21T13:36:09.359Z,2.95
2023-03-21T13:40:37.841Z,3.17
2023-03-21T13:44:55.751Z,3.47
2023-03-21T13:49:10.302Z,3.08
2023-03-21T13:53:24.279Z,2.83
2023-03-21T13:57:38.755Z,3.08
2023-03-21T14:02:00.894Z,3.28
2023-03-21T14:06:13.494Z,3.08
2023-03-21T14:10:35.881Z,3.28
2023-03-21T14:14:52.360Z,3.40
2023-03-21T14:19:05.598Z,3.33
2023-03-21T14:23:17.553Z,3.67
2023-03-21T14:27:35.374Z,3.30
2023-03-21T14:31:50.331Z,3.58
2023-03-21T14:36:08.904Z,3.25
2023-03-21T14:40:25.916Z,3.33
2023-03-21T14:44:58.099Z,3.03
2023-03-21T14:49:11.746Z,3.40
2023-03-21T14:53:27.241Z,2.85
2023-03-21T14:57:39.251Z,3.10
2023-03-21T15:01:54.125Z,3.00
2023-03-21T15:06:13.414Z,2.40
2023-03-21T15:10:27.587Z,3.17
2023-03-21T15:14:40.584Z,3.70
2023-03-21T15:18:52.740Z,3.30
2023-03-21T15:23:13.250Z,3.40
2023-03-21T15:27:25.743Z,2.75
2023-03-21T15:31:40.436Z,3.63
2023-03-21T15:35:55.598Z,3.40
2023-03-21T15:40:21.574Z,2.88
2023-03-21T15:44:35.164Z,3.53
2023-03-21T15:48:46.805Z,3.47
2023-03-21T15:53:01.178Z,3.97
2023-03-21T15:57:34.528Z,3.10
2023-03-21T16:01:50.972Z,3.63
2023-03-21T16:06:16.786Z,3.15
2023-03-21T16:10:38.914Z,3.33
2023-03-21T16:14:51.112Z,3.35
2023-03-21T16:19:03.612Z,3.28
2023-03-21T16:23:16.216Z,2.95
2023-03-21T16:27:28.453Z,3.33
2023-03-21T16:31:40.410Z,3.10
2023-03-21T16:35:52.175Z,3.60
2023-03-21T16:40:12.554Z,3.05
2023-03-21T16:44:24.347Z,3.67
2023-03-21T16:48:36.042Z,4.13
2023-03-21T16:52:48.378Z,4.22
2023-03-21T16:57:00.180Z,3.92
2023-03-21T17:01:19.146Z,4.03
2023-03-21T17:05:30.945Z,5.00
2023-03-21T17:09:47.938Z,4.57
2023-03-21T17:13:59.576Z,5.70
2023-03-21T17:18:12.185Z,5.05
2023-03-21T17:22:23.788Z,4.60
2023-03-21T17:26:36.359Z,4.55
2023-03-21T17:30:48.068Z,4.47
2023-03-21T17:34:59.677Z,4.50
2023-03-21T17:39:18.327Z,4.88
2023-03-21T17:43:30.102Z,5.10
2023-03-21T17:47:42.212Z,4.82
2023-03-21T17:51:53.879Z,4.30
2023-03-21T17:56:06.844Z,3.67
2023-03-21T18:00:22.916Z,3.85
2023-03-21T18:04:34.697Z,3.58
2023-03-21T18:08:48.161Z,4.10
2023-03-21T18:13:00.297Z,3.58
2023-03-21T18:17:12.021Z,3.78
2023-03-21T18:21:26.185Z,3.67
2023-03-21T18:25:41.791Z,2.92
2023-03-21T18:30:25.846Z,3.28
2023-03-21T18:34:25.290Z,3.60
2023-03-21T18:38:37.166Z,3.88
2023-03-21T18:43:41.418Z,4.03
2023-03-21T18:47:20.713Z,3.35
2023-03-21T18:51:32.669Z,3.85
2023-03-21T18:55:46.530Z,3.40
2023-03-21T19:00:00.111Z,3.95
2023-03-21T19:04:22.989Z,3.45
2023-03-21T19:08:41.766Z,3.50
2023-03-21T19:12:54.808Z,3.38
2023-03-21T19:17:56.441Z,3.45
2023-03-21T19:21:39.793Z,3.13
2023-03-21T19:25:51.455Z,3.60
2023-03-21T19:30:14.486Z,2.90
2023-03-21T19:34:28.718Z,3.30
2023-03-21T19:38:40.739Z,3.30
2023-03-21T19:42:52.989Z,3.47
2023-03-21T19:47:04.693Z,4.60
2023-03-21T19:51:32.470Z,3.70
2023-03-21T19:55:44.821Z,3.58
2023-03-21T19:59:56.720Z,3.05
2023-03-21T20:04:09.046Z,3.25
2023-03-21T20:08:20.709Z,3.25
2023-03-21T20:12:33.215Z,3.20
2023-03-21T20:16:44.910Z,3.90
2023-03-21T20:20:57.277Z,3.75
2023-03-21T20:25:09.811Z,3.58
2023-03-21T20:33:53.178Z,3.67
2023-03-21T20:38:04.837Z,4.10
2023-03-21T20:42:16.476Z,4.22
2023-03-21T20:46:28.486Z,5.25
2023-03-21T20:50:40.332Z,4.80
2023-03-21T20:54:52.010Z,4.47
2023-03-21T20:59:16.799Z,4.30
2023-03-21T21:03:39.159Z,5.30
2023-03-21T21:07:50.809Z,4.85
2023-03-21T21:12:06.934Z,4.50
2023-03-21T21:16:19.373Z,4.82
2023-03-21T21:20:33.602Z,4.63
2023-03-21T21:24:45.490Z,4.22
2023-03-21T21:28:58.801Z,5.20
2023-03-21T21:33:10.569Z,4.32
2023-03-21T21:37:22.858Z,5.13
2023-03-21T21:41:34.583Z,4.95
2023-03-21T21:45:47.483Z,5.47
2023-03-21T21:49:59.160Z,5.20
2023-03-21T21:54:11.054Z,4.97
2023-03-21T21:58:22.796Z,5.57
2023-03-21T22:02:34.552Z,5.65
2023-03-21T22:06:47.861Z,5.97
2023-03-21T22:11:03.505Z,6.25
2023-03-21T22:15:15.153Z,5.80
2023-03-21T22:19:27.711Z,6.00
2023-03-21T22:23:41.477Z,6.95
2023-03-21T22:27:53.323Z,6.20
2023-03-21T22:32:05.438Z,6.18
2023-03-21T22:36:17.091Z,4.63
2023-03-21T22:40:28.837Z,5.50
2023-03-21T22:44:40.637Z,4.72
2023-03-21T22:48:52.323Z,4.40
2023-03-21T22:53:03.956Z,4.43
2023-03-21T22:57:16.741Z,4.63
2023-03-21T23:01:28.366Z,4.05
2023-03-21T23:05:44.529Z,4.28
2023-03-21T23:09:56.618Z,3.90
2023-03-21T23:14:08.902Z,3.60
2023-03-21T23:18:20.576Z,3.92
2023-03-21T23:22:32.885Z,3.20
2023-03-21T23:26:44.542Z,3.50
2023-03-21T23:30:56.301Z,3.08
2023-03-21T23:35:08.888Z,3.70
2023-03-21T23:39:20.499Z,3.10
2023-03-21T23:43:32.097Z,3.35
2023-03-21T23:47:44.093Z,3.50
2023-03-21T23:51:55.918Z,2.63
2023-03-21T23:56:18.978Z,2.60
